Time;durP1;ratioP1;P1;durP2;ratioP2;P2;SDS_P1;SDS_P2;PMS_P1;PMS_P2;Temp;Humidity;BMP_temperature;BMP_pressure;BME280_temperature;BME280_humidity;BME280_pressure;Samples;Min_cycle;Max_cycle;Signal;HPM_P1;HPM_P2
2024/03/21 00:00:11;;;;;;;16.45;7.45;;;;;;;-144.05;76.50;56931.66;5020673;28;20639;-84
2024/03/21 00:02:46;;;;;;;12.38;7.80;;;10.60;99.90;;;-144.05;76.88;56929.53;5018913;28;20048;-83
2024/03/21 00:05:17;;;;;;;;;;;11.60;99.90;;;-144.05;76.59;56927.41;5031836;28;20389;-83
2024/03/21 00:07:47;;;;;;;11.93;6.97;;;10.50;99.90;;;-144.05;76.61;56925.28;5034371;28;19917;-84
2024/03/21 00:10:14;;;;;;;11.95;7.28;;;10.00;99.90;;;-144.05;76.81;56914.69;5024629;28;20030;-83
2024/03/21 00:12:41;;;;;;;12.77;7.28;;;;;;;-144.05;76.53;56927.41;5019440;28;20041;-84
2024/03/21 00:15:09;;;;;;;11.93;7.18;;;10.50;99.90;;;-144.05;76.17;56938.03;5021157;28;20026;-83
2024/03/21 00:17:36;;;;;;;11.82;7.05;;;;;;;-144.05;75.85;56918.94;5020421;28;20033;-86
2024/03/21 00:20:10;;;;;;;12.10;8.18;;;10.40;99.90;;;-144.05;75.94;56952.91;5020044;28;20073;-84
2024/03/21 00:22:37;;;;;;;12.57;7.65;;;;;;;-144.05;75.43;56931.66;5032826;28;20074;-83
2024/03/21 00:25:05;;;;;;;12.18;7.25;;;10.30;99.90;;;-144.05;75.65;56929.53;5019553;28;20061;-84
2024/03/21 00:27:36;;;;;;;12.52;7.75;;;10.30;99.90;;;-144.05;75.73;56935.91;5034949;28;20034;-84
2024/03/21 00:30:05;;;;;;;14.00;7.90;;;10.20;99.90;;;-144.05;75.81;56912.56;5019711;28;20095;-84
2024/03/21 00:32:32;;;;;;;14.30;7.57;;;;;;;-144.05;76.16;56891.31;5018408;28;20029;-85
2024/03/21 00:34:58;;;;;;;14.63;7.47;;;;;;;-144.05;76.10;56944.41;5019914;28;20045;-83
2024/03/21 00:37:25;;;;;;;10.88;7.30;;;;;;;-144.05;76.57;56935.91;5020910;28;20030;-85
2024/03/21 00:39:54;;;;;;;12.13;7.45;;;10.10;99.90;;;-144.05;76.76;56923.19;5025040;28;20068;-85
2024/03/21 00:42:21;;;;;;;13.05;6.72;;;;;;;-144.05;76.81;56931.66;5018448;28;20030;-85
2024/03/21 00:44:48;;;;;;;14.07;6.82;;;;;;;-144.05;76.73;56933.78;5024555;28;20211;-84
2024/03/21 00:47:15;;;;;;;12.35;7.40;;;;;;;-144.05;77.02;56948.66;5020190;28;20038;-85
2024/03/21 00:49:41;;;;;;;13.30;7.20;;;;;;;-144.05;77.28;56938.03;5021986;28;20030;-85
2024/03/21 00:52:07;;;;;;;13.80;7.32;;;;;;;-144.05;77.36;56933.78;5020419;28;20382;-84
2024/03/21 00:54:34;;;;;;;10.60;7.03;;;;;;;-144.05;77.51;56923.19;5019583;28;20025;-82
2024/03/21 00:57:00;;;;;;;12.82;7.18;;;;;;;-144.05;77.58;56904.06;5020748;28;20080;-85
2024/03/21 00:59:26;;;;;;;12.40;7.40;;;;;;;-144.05;77.40;56921.06;5021434;28;20514;-84
2024/03/21 01:01:54;;;;;;;13.32;7.00;;;;;;;-144.05;77.65;56918.94;5022510;28;20026;-85
2024/03/21 01:04:20;;;;;;;14.90;6.95;;;;;;;-144.05;77.92;56929.53;5019672;28;20033;-84
2024/03/21 01:06:46;;;;;;;13.77;7.63;;;;;;;-144.05;78.13;56938.03;5019772;28;20045;-85
2024/03/21 01:09:14;;;;;;;17.60;7.20;;;;;;;-144.05;78.45;56957.16;5020277;28;20030;-82
2024/03/21 01:11:41;;;;;;;10.38;6.40;;;;;;;-144.05;78.23;56933.78;5035621;28;20041;-85
2024/03/21 01:14:08;;;;;;;11.05;6.80;;;;;;;-144.05;78.54;56895.56;5021871;28;20033;-86
2024/03/21 01:16:34;;;;;;;11.82;6.47;;;9.30;99.90;;;-144.05;79.30;56942.28;5018782;28;20026;-83
2024/03/21 01:19:01;;;;;;;11.38;7.22;;;;;;;-144.05;79.75;56923.19;5017415;28;20495;-82
2024/03/21 01:21:29;;;;;;;11.70;6.70;;;9.40;99.90;;;-144.05;80.33;56921.06;5016187;28;20137;-85
2024/03/21 01:23:56;;;;;;;10.45;6.38;;;;;;;-144.05;80.54;56933.78;5022178;28;20084;-83
2024/03/21 01:26:22;;;;;;;11.75;7.18;;;;;;;-144.05;80.73;56931.66;5031537;28;20034;-83
2024/03/21 01:28:48;;;;;;;10.48;6.43;;;;;;;-144.05;80.39;56942.28;5032869;28;20029;-83
2024/03/21 01:31:14;;;;;;;13.63;7.35;;;;;;;-144.05;80.59;56935.91;5018489;28;20026;-85
2024/03/21 01:33:44;;;;;;;8.40;6.22;;;9.40;99.90;;;-144.05;80.48;56948.66;5017430;28;20026;-84
2024/03/21 01:36:11;;;;;;;10.70;6.93;;;9.40;99.90;;;-144.05;80.59;56946.53;5018839;28;20018;-84
2024/03/21 01:38:40;;;;;;;10.77;6.82;;;9.40;99.90;;;-144.05;80.63;56927.41;5019774;28;20073;-85
2024/03/21 01:41:06;;;;;;;10.35;6.85;;;;;;;-144.05;80.69;56952.91;5026747;28;20030;-85
2024/03/21 01:43:34;;;;;;;9.45;6.40;;;9.20;99.90;;;-144.05;80.61;56906.19;5028860;28;20037;-85
2024/03/21 01:46:20;;;;;;;10.77;5.85;;;9.10;99.90;;;-144.05;80.91;56948.66;5037165;28;20041;-84
2024/03/21 01:48:49;;;;;;;11.73;5.80;;;9.00;99.90;;;-144.05;81.07;56923.19;5019054;28;20026;-83
2024/03/21 01:51:23;;;;;;;15.60;7.00;;;8.70;99.90;;;-144.05;82.57;56938.03;5017075;28;20018;-84
2024/03/21 01:53:52;;;;;;;14.10;6.80;;;9.00;99.90;;;-144.05;83.87;56938.03;5022996;28;20114;-84
2024/03/21 01:56:19;;;;;;;17.45;7.82;;;9.00;99.90;;;-144.05;84.61;56935.91;5015781;28;20025;-84
2024/03/21 01:58:45;;;;;;;16.92;8.70;;;;;;;-144.05;83.98;56929.53;5032604;28;20022;-82
2024/03/21 02:01:28;;;;;;;16.98;9.50;;;9.10;99.90;;;-144.05;84.30;56921.06;5017801;28;20025;-83
2024/03/21 02:03:57;;;;;;;18.08;8.63;;;9.70;99.90;;;-144.05;83.95;56950.78;5027111;28;20022;-83
2024/03/21 02:06:27;;;;;;;16.83;8.95;;;9.90;99.90;;;-144.05;83.44;56933.78;5018221;28;20026;-85
2024/03/21 02:08:54;;;;;;;12.55;7.80;;;;;;;-144.05;83.67;56931.66;5016995;28;20032;-85
2024/03/21 02:11:22;;;;;;;10.38;7.57;;;9.60;99.90;;;-144.05;83.47;56944.41;5017065;28;20034;-85
2024/03/21 02:13:51;;;;;;;19.02;9.93;;;9.60;99.90;;;-144.05;83.94;56929.53;5018716;28;20426;-84
2024/03/21 02:16:17;;;;;;;13.38;8.07;;;;;;;-144.05;83.72;56925.28;5019117;28;20021;-82
2024/03/21 02:18:44;;;;;;;15.57;8.65;;;;;;;-144.05;83.27;56942.28;5018790;28;20030;-83
2024/03/21 02:23:55;;;;;;;14.05;8.32;;;9.90;99.90;;;-144.05;83.10;56950.78;5020232;28;20041;-84
2024/03/21 02:26:26;;;;;;;16.98;9.15;;;10.00;99.90;;;-144.05;83.17;56921.06;5041566;28;20034;-85
2024/03/21 02:28:53;;;;;;;14.52;8.50;;;;;;;-144.05;82.71;56887.06;5020373;28;20476;-84
2024/03/21 02:31:21;;;;;;;13.10;8.73;;;10.10;99.90;;;-144.05;82.42;56914.69;5034767;28;20076;-84
2024/03/21 02:33:49;;;;;;;15.02;9.13;;;;;;;-144.05;82.19;56957.16;5036616;28;20030;-85
2024/03/21 02:36:16;;;;;;;19.02;9.23;;;9.70;99.90;;;-144.05;81.94;56921.06;5024443;28;20093;-86
2024/03/21 02:38:42;;;;;;;14.65;8.48;;;;;;;-144.05;81.79;56912.56;5014590;28;20483;-83
2024/03/21 02:41:09;;;;;;;10.85;8.15;;;10.10;99.90;;;-144.05;81.37;56929.53;5018701;28;20030;-83
2024/03/21 02:43:35;;;;;;;13.70;9.23;;;;;;;-144.05;81.37;56946.53;5014674;28;20441;-84
2024/03/21 02:46:02;;;;;;;15.20;8.95;;;;;;;-144.05;81.59;56925.28;5010642;28;20024;-83
2024/03/21 02:48:30;;;;;;;17.17;9.13;;;;;;;-144.05;81.31;56929.53;5017134;28;20026;-85
2024/03/21 02:50:56;;;;;;;14.38;8.70;;;;;;;-144.05;81.34;56957.16;5016595;28;20018;-85
2024/03/21 02:53:22;;;;;;;12.85;9.20;;;;;;;-144.05;81.24;56938.03;5019376;28;20072;-84
2024/03/21 02:55:49;;;;;;;12.52;8.32;;;;;;;-144.05;81.37;56923.19;5020356;28;20113;-84
2024/03/21 02:58:15;;;;;;;14.00;8.32;;;;;;;-144.05;81.32;56906.19;5022427;28;20113;-85
2024/03/21 03:00:41;;;;;;;13.13;8.35;;;;;;;-144.05;81.12;56938.03;5015894;28;20117;-84
2024/03/21 03:03:07;;;;;;;15.18;8.52;;;;;;;-144.05;80.81;56912.56;5017821;28;20075;-83
2024/03/21 03:05:42;;;;;;;11.52;7.53;;;10.10;99.90;;;-144.05;80.62;56940.16;5015850;28;20571;-83
2024/03/21 03:08:08;;;;;;;12.85;7.95;;;;;;;-144.05;80.60;56901.94;5036523;28;20032;-85
2024/03/21 03:10:36;;;;;;;14.48;8.30;;;9.80;99.90;;;-144.05;80.75;56957.16;5020410;28;20121;-84
2024/03/21 03:13:03;;;;;;;11.88;7.57;;;;;;;-144.05;80.73;56916.81;5037479;28;20033;-85
2024/03/21 03:15:30;;;;;;;12.15;7.90;;;;;;;-144.05;80.97;56950.78;5037366;28;20080;-84
2024/03/21 03:17:56;;;;;;;15.02;8.68;;;;;;;-144.05;80.94;56927.41;5021125;28;20084;-84
2024/03/21 03:20:22;;;;;;;13.75;8.15;;;;;;;-144.05;81.14;56935.91;5018625;28;20114;-83
2024/03/21 03:22:48;;;;;;;17.55;10.43;;;;;;;-144.05;81.19;56940.16;5029670;28;20038;-85
2024/03/21 03:25:15;;;;;;;19.17;10.40;;;;;;;-144.05;81.85;56931.66;5024715;28;20030;-86
2024/03/21 03:27:41;;;;;;;15.52;9.13;;;;;;;-144.05;81.56;56910.44;5020050;28;20030;-84
2024/03/21 03:30:08;;;;;;;12.95;7.97;;;;;;;-144.05;81.41;56923.19;5035184;28;20026;-85
2024/03/21 03:32:47;;;;;;;18.20;10.45;;;;;;;-144.05;82.51;56910.44;5026989;28;20033;-84
2024/03/21 03:35:34;;;;;;;14.98;9.68;;;;;;;-144.05;82.75;56923.19;5015684;28;20496;-84
2024/03/21 03:38:01;;;;;;;17.42;11.05;;;;;;;-144.05;82.96;56933.78;5021023;28;20025;-84
2024/03/21 03:40:27;;;;;;;16.50;10.07;;;;;;;-144.05;82.51;56940.16;5021793;28;20208;-85
2024/03/21 03:42:53;;;;;;;15.88;11.23;;;;;;;-144.05;83.16;56925.28;5022121;28;20501;-85
2024/03/21 03:45:21;;;;;;;19.33;11.77;;;9.80;99.90;;;-144.05;83.22;56933.78;5019309;28;20064;-83
2024/03/21 03:47:47;;;;;;;21.40;12.13;;;;;;;-144.05;83.26;56935.91;5019549;28;20026;-83
2024/03/21 03:50:13;;;;;;;21.63;14.75;;;;;;;-144.05;83.55;56933.78;5035729;28;20049;-84
2024/03/21 03:52:39;;;;;;;18.85;12.52;;;;;;;-144.05;83.53;56918.94;5019326;28;20050;-83
2024/03/21 03:55:06;;;;;;;24.98;13.80;;;;;;;-144.05;83.85;56931.66;5035072;28;20026;-84
2024/03/21 03:57:32;;;;;;;21.50;13.15;;;;;;;-144.05;83.74;56921.06;5035337;28;20038;-84
2024/03/21 04:00:00;;;;;;;23.73;13.57;;;;;;;-144.05;83.94;56914.69;5033607;28;20025;-84
2024/03/21 04:02:29;;;;;;;25.58;16.27;;;;;;;-144.05;84.26;56957.16;5024814;28;20030;-85
2024/03/21 04:04:55;;;;;;;27.75;16.10;;;;;;;-144.05;84.01;56921.06;5024738;28;20117;-82
2024/03/21 04:07:23;;;;;;;26.35;18.38;;;;;;;-144.05;84.51;56880.69;5019808;28;20026;-84
2024/03/21 04:09:49;;;;;;;33.15;18.92;;;;;;;-144.05;84.41;56952.91;5011876;28;20018;-86
2024/03/21 04:12:15;;;;;;;23.08;16.13;;;;;;;-144.05;84.09;56938.03;5020027;28;20028;-84
2024/03/21 04:14:45;;;;;;;23.40;15.02;;;;;;;-144.05;84.10;56923.19;5019059;28;20022;-81
2024/03/21 04:17:12;;;;;;;27.65;14.45;;;;;;;-144.05;83.84;56925.28;5021851;28;20022;-82
2024/03/21 04:19:38;;;;;;;26.88;14.93;;;;;;;-144.05;83.76;56948.66;5016321;28;20022;-84
2024/03/21 04:22:04;;;;;;;22.17;14.38;;;;;;;-144.05;83.74;56912.56;5017807;28;20036;-84
2024/03/21 04:24:30;;;;;;;21.88;13.18;;;;;;;-144.05;83.61;56955.03;5016875;28;20080;-84
2024/03/21 04:26:56;;;;;;;20.15;13.52;;;;;;;-144.05;83.75;56929.53;5018141;28;20057;-84
2024/03/21 04:29:23;;;;;;;23.85;14.07;;;;;;;-144.05;83.57;56899.81;5016084;28;20056;-86
2024/03/21 04:31:49;;;;;;;21.65;13.65;;;;;;;-144.05;83.45;56938.03;5009975;28;20021;-85
2024/03/21 04:34:15;;;;;;;28.42;15.63;;;;;;;-144.05;83.69;56929.53;5017675;28;20087;-85
2024/03/21 04:36:42;;;;;;;26.50;15.18;;;;;;;-144.05;83.64;56927.41;5017303;28;20041;-85
2024/03/21 04:39:08;;;;;;;25.15;15.77;;;;;;;-144.05;83.75;56929.53;5015269;28;20495;-86
2024/03/21 04:41:34;;;;;;;28.00;16.00;;;7.60;99.90;;;-144.05;83.59;56940.16;5017279;28;20109;-85
2024/03/21 04:44:00;;;;;;;29.02;17.65;;;;;;;-144.05;83.88;56927.41;5015390;28;20131;-84
2024/03/21 04:46:26;;;;;;;35.75;21.58;;;;;;;-144.05;84.36;56912.56;5016608;28;20494;-84
2024/03/21 04:48:52;;;;;;;40.33;23.73;;;;;;;-144.05;84.62;56940.16;5017486;28;20045;-83
2024/03/21 04:51:18;;;;;;;40.63;24.27;;;;;;;-144.05;84.84;56925.28;5029604;28;20133;-82
2024/03/21 04:53:45;;;;;;;33.50;22.25;;;;;;;-144.05;84.95;56925.28;5021150;28;20064;-86
2024/03/21 04:56:11;;;;;;;30.23;18.92;;;;;;;-144.05;84.66;56925.28;5027908;28;20022;-85
2024/03/21 04:58:38;;;;;;;36.55;20.15;;;;;;;-144.05;84.69;56916.81;5017334;28;20038;-84
2024/03/21 05:01:06;;;;;;;39.22;21.55;;;10.60;99.90;;;-144.05;84.74;56921.06;5020819;28;20133;-85
2024/03/21 05:03:33;;;;;;;42.33;23.05;;;;;;;-144.05;85.12;56961.41;5019624;28;20053;-85
2024/03/21 05:05:59;;;;;;;42.10;24.20;;;;;;;-144.05;85.48;56916.81;5019691;28;20034;-84
2024/03/21 05:08:25;;;;;;;42.35;23.65;;;10.20;99.90;;;-144.05;86.09;56933.78;5018435;28;20506;-86
2024/03/21 05:10:52;;;;;;;42.33;24.60;;;;;;;-144.05;85.80;56893.44;5030171;28;20022;-84
2024/03/21 05:13:19;;;;;;;42.13;23.30;;;;;;;-144.05;85.47;56965.66;5030822;28;20064;-85
2024/03/21 05:15:52;;;;;;;39.58;22.92;;;;;;;-144.05;84.79;56918.94;5042258;28;20084;-86
2024/03/21 05:18:18;;;;;;;39.90;23.33;;;;;;;-144.05;84.61;56927.41;5034625;28;20025;-85
2024/03/21 05:20:46;;;;;;;42.97;23.13;;;10.60;99.90;;;-144.05;85.01;56942.28;5035176;28;20052;-86
2024/03/21 05:23:12;;;;;;;40.60;24.15;;;;;;;-144.05;84.95;56948.66;5020418;28;20022;-85
2024/03/21 05:25:39;;;;;;;51.42;26.38;;;10.70;99.90;;;-144.05;85.01;56946.53;5018722;28;20488;-85
2024/03/21 05:28:05;;;;;;;43.42;23.42;;;;;;;-144.05;85.48;56921.06;5019393;28;20034;-85
2024/03/21 05:30:32;;;;;;;41.10;23.02;;;;;;;-144.05;85.26;56925.28;5015930;28;20026;-85
2024/03/21 05:32:58;;;;;;;41.78;24.02;;;;;;;-144.05;85.45;56935.91;5009486;28;20128;-85
2024/03/21 05:35:24;;;;;;;43.72;24.15;;;;;;;-144.05;86.14;56910.44;5017248;28;20125;-85
2024/03/21 05:37:51;;;;;;;47.30;23.30;;;;;;;-144.05;85.62;56931.66;5016025;28;20022;-85
2024/03/21 05:40:17;;;;;;;44.22;23.42;;;;;;;-144.05;85.26;56942.28;5017533;28;20069;-85
2024/03/21 05:42:43;;;;;;;38.45;23.15;;;;;;;-144.05;85.76;56959.28;5016080;28;20041;-84
2024/03/21 05:45:10;;;;;;;41.38;21.90;;;10.40;99.90;;;-144.05;85.81;56923.19;5025075;28;20025;-84
2024/03/21 05:47:36;;;;;;;40.92;22.42;;;;;;;-144.05;85.99;56923.19;5016353;28;20515;-84
2024/03/21 05:50:03;;;;;;;40.65;20.75;;;;;;;-144.05;86.26;56908.31;5028057;28;20109;-83
2024/03/21 05:52:31;;;;;;;37.55;21.17;;;10.20;99.90;;;-144.05;86.95;56921.06;5025314;28;20026;-84
2024/03/21 05:54:58;;;;;;;42.53;23.13;;;;;;;-144.05;87.60;56955.03;5017809;28;20109;-84
2024/03/21 05:57:25;;;;;;;43.58;22.70;;;;;;;-144.05;87.91;56931.66;5018393;28;20052;-83
2024/03/21 05:59:54;;;;;;;38.97;21.90;;;10.10;99.90;;;-144.05;88.18;56918.94;5035470;28;20501;-83
2024/03/21 06:02:21;;;;;;;39.67;22.77;;;;;;;-144.05;88.13;56904.06;5019302;28;20518;-84
2024/03/21 06:04:48;;;;;;;38.40;21.67;;;10.10;99.90;;;-144.05;87.83;56897.69;5027808;28;20030;-84
2024/03/21 06:07:14;;;;;;;43.83;22.80;;;;;;;-144.05;88.20;56933.78;5017090;28;20521;-84
2024/03/21 06:09:40;;;;;;;43.50;22.55;;;;;;;-144.05;88.62;56942.28;5032788;28;20478;-85
2024/03/21 06:12:07;;;;;;;39.10;21.45;;;;;;;-144.05;88.96;56918.94;5031705;28;20025;-84
2024/03/21 06:14:35;;;;;;;39.45;21.25;;;;;;;-144.05;88.61;56923.19;5022913;28;20325;-85
2024/03/21 06:17:02;;;;;;;39.30;21.65;;;;;;;-144.05;88.51;56916.81;5021512;28;20129;-85
2024/03/21 06:19:28;;;;;;;45.35;21.60;;;;;;;-144.05;88.44;56963.53;5020217;28;20030;-83
2024/03/21 06:21:56;;;;;;;40.45;21.38;;;;;;;-144.05;88.25;56927.41;5021066;28;20033;-81
2024/03/21 06:24:22;;;;;;;46.40;23.08;;;;;;;-144.05;88.32;56950.78;5021872;28;20030;-84
2024/03/21 06:26:48;;;;;;;41.55;20.83;;;;;;;-144.05;88.42;56914.69;5023360;28;20033;-85
2024/03/21 06:29:15;;;;;;;34.35;20.63;;;;;;;-144.05;88.40;56938.03;5025194;28;20101;-78
2024/03/21 06:31:41;;;;;;;34.55;20.33;;;;;;;-144.05;87.70;56933.78;5019146;28;20029;-85
2024/03/21 06:34:07;;;;;;;40.35;21.67;;;;;;;-144.05;87.44;56938.03;5018984;28;20090;-87
2024/03/21 06:36:33;;;;;;;41.03;21.25;;;;;;;-144.05;87.04;56952.91;5018488;28;20035;-83
2024/03/21 06:39:00;;;;;;;37.63;21.65;;;;;;;-144.05;86.36;56918.94;5018350;28;20026;-83
2024/03/21 06:41:26;;;;;;;35.35;20.42;;;;;;;-144.05;85.74;56914.69;5029271;28;20415;-84
2024/03/21 06:43:52;;;;;;;38.67;19.60;;;;;;;-144.05;85.14;56942.28;5021515;28;20033;-82
2024/03/21 06:46:19;;;;;;;38.55;19.55;;;;;;;-144.05;85.11;56950.78;5019566;28;20033;-84
2024/03/21 06:48:45;;;;;;;32.60;18.75;;;;;;;-144.05;84.70;56931.66;5020574;28;20048;-84
2024/03/21 06:51:12;;;;;;;30.25;17.92;;;;;;;-144.05;84.36;56910.44;5021387;28;20038;-86
2024/03/21 06:53:38;;;;;;;27.17;17.45;;;;;;;-144.05;83.67;56916.81;5035887;28;20030;-83
2024/03/21 06:56:04;;;;;;;27.98;17.52;;;;;;;-144.05;83.13;56940.16;5037129;28;20037;-84
2024/03/21 06:58:32;;;;;;;28.25;17.17;;;;;;;-144.05;83.28;56906.19;5022490;28;20048;-84
2024/03/21 07:00:59;;;;;;;28.38;17.40;;;;;;;-144.05;82.96;56929.53;5023553;28;20052;-83
2024/03/21 07:03:25;;;;;;;30.20;18.15;;;;;;;-144.05;82.57;56940.16;5024377;28;20049;-85
2024/03/21 07:05:51;;;;;;;27.60;17.23;;;;;;;-144.05;82.39;56929.53;5022708;28;20022;-86
2024/03/21 07:08:17;;;;;;;29.42;16.52;;;;;;;-144.05;82.52;56944.41;5022510;28;20038;-83
2024/03/21 07:10:45;;;;;;;33.25;17.80;;;;;;;-144.05;82.14;56914.69;5023098;28;20018;-83
2024/03/21 07:13:11;;;;;;;26.25;16.40;;;;;;;-144.05;82.24;56929.53;5021831;28;20022;-83
2024/03/21 07:15:43;;;;;;;28.02;16.65;;;10.80;99.90;;;-144.05;82.08;56921.06;5022564;28;20059;-84
2024/03/21 07:18:14;;;;;;;33.85;19.50;;;10.70;99.90;;;-144.05;82.89;56916.81;5022673;28;20025;-81
2024/03/21 07:20:40;;;;;;;30.20;18.05;;;;;;;-144.05;82.94;56946.53;5021172;28;20126;-82
2024/03/21 07:23:07;;;;;;;31.85;17.85;;;10.90;99.90;;;-144.05;82.82;56935.91;5023410;28;20033;-85
2024/03/21 07:25:36;;;;;;;32.17;19.15;;;;;;;-144.05;82.48;56938.03;5023259;28;20464;-84
2024/03/21 07:28:03;;;;;;;30.20;18.42;;;12.00;99.90;;;-144.05;82.37;56925.28;5022855;28;20036;-83
2024/03/21 07:30:30;;;;;;;31.25;18.15;;;11.00;99.90;;;-144.05;81.85;56916.81;5022327;28;20120;-82
2024/03/21 07:32:56;;;;;;;30.42;18.42;;;;;;;-144.05;81.63;56912.56;5023603;28;20030;-83
2024/03/21 07:35:22;;;;;;;27.23;17.13;;;;;;;-144.05;81.17;56921.06;5021573;28;20056;-85
2024/03/21 07:37:49;;;;;;;28.15;17.48;;;;;;;-144.05;80.97;56946.53;5023209;28;20036;-83
2024/03/21 07:40:15;;;;;;;31.77;17.15;;;;;;;-144.05;80.75;56957.16;5021733;28;20037;-86
2024/03/21 07:42:41;;;;;;;25.42;16.20;;;;;;;-144.05;80.55;56910.44;5020344;28;20026;-83
2024/03/21 07:45:10;;;;;;;19.30;12.10;;;;;;;-144.05;77.39;56908.31;5020992;28;20022;-84
2024/03/21 07:47:36;;;;;;;14.80;9.40;;;;;;;-144.05;74.57;56927.41;5019620;28;20089;-84
2024/03/21 07:50:03;;;;;;;15.73;8.88;;;;;;;-144.05;71.38;56942.28;5015161;28;20025;-84
2024/03/21 07:52:29;;;;;;;12.85;9.55;;;;;;;-144.05;70.27;56925.28;5020855;28;20042;-83
2024/03/21 07:54:55;;;;;;;12.73;8.80;;;;;;;-144.05;70.34;56899.81;5029462;28;20048;-83
2024/03/21 07:57:21;;;;;;;15.45;9.20;;;;;;;-144.05;69.09;56933.78;5023942;28;20049;-84
2024/03/21 07:59:49;;;;;;;14.68;9.25;;;;;;;-144.05;68.06;56914.69;5028182;28;20026;-82
2024/03/21 08:02:16;;;;;;;13.57;8.55;;;;;;;-144.05;68.75;56921.06;5036093;28;20037;-79
2024/03/21 08:04:42;;;;;;;15.55;8.82;;;;;;;-144.05;69.12;56938.03;5028487;28;20097;-83
2024/03/21 08:07:08;;;;;;;14.10;8.70;;;;;;;-144.05;69.11;56906.19;5017299;28;20068;-82
2024/03/21 08:09:34;;;;;;;14.00;8.77;;;;;;;-144.05;67.26;56955.03;5019065;28;20133;-83
2024/03/21 08:12:00;;;;;;;14.85;9.10;;;;;;;-144.05;66.75;56942.28;5020633;28;20026;-85
2024/03/21 08:14:26;;;;;;;12.80;7.63;;;;;;;-144.05;65.71;56940.16;5019920;28;20022;-81
2024/03/21 08:16:53;;;;;;;13.15;7.57;;;;;;;-144.05;63.62;56918.94;5020212;28;20080;-82
2024/03/21 08:19:19;;;;;;;11.75;7.88;;;;;;;-144.05;64.43;56923.19;5020299;28;20080;-82
2024/03/21 08:21:45;;;;;;;15.77;9.82;;;;;;;-144.05;63.71;56918.94;5018570;28;20117;-81
2024/03/21 08:24:11;;;;;;;13.15;8.38;;;;;;;-144.05;61.56;56923.19;5020688;28;20080;-82
2024/03/21 08:26:38;;;;;;;12.52;8.52;;;;;;;-144.05;60.99;56933.78;5019397;28;20391;-82
2024/03/21 08:29:04;;;;;;;12.73;7.40;;;;;;;-144.05;61.71;56944.41;5020125;28;20076;-82
2024/03/21 08:31:30;;;;;;;13.48;8.55;;;;;;;-144.05;62.23;56940.16;5017596;28;20026;-84
2024/03/21 08:33:56;;;;;;;11.15;7.28;;;;;;;-144.05;62.77;56929.53;5018192;28;20108;-84
2024/03/21 08:36:23;;;;;;;11.05;6.88;;;;;;;-144.05;64.54;56946.53;5019319;28;20056;-82
2024/03/21 08:38:49;;;;;;;18.20;7.95;;;;;;;-144.05;64.79;56952.91;5019559;28;20029;-82
2024/03/21 08:41:15;;;;;;;12.25;8.10;;;;;;;-144.05;65.07;56931.66;5020459;28;20460;-82
2024/03/21 08:43:42;;;;;;;12.25;8.10;;;;;;;-144.05;66.16;56916.81;5020929;28;20030;-82
2024/03/21 08:46:09;;;;;;;11.20;8.25;;;;;;;-144.05;65.90;56923.19;5013651;28;20029;-83
2024/03/21 08:48:36;;;;;;;14.35;7.88;;;11.00;99.90;;;-144.05;65.65;56912.56;5021150;28;20125;-85
2024/03/21 08:51:02;;;;;;;12.13;8.00;;;;;;;-144.05;65.07;56933.78;5021448;28;20077;-81
2024/03/21 08:53:28;;;;;;;13.57;8.10;;;;;;;-144.05;64.71;56935.91;5020226;28;20026;-84
2024/03/21 08:55:54;;;;;;;11.65;8.18;;;;;;;-144.05;64.55;56914.69;5020452;28;20025;-84
2024/03/21 08:58:21;;;;;;;9.27;6.47;;;;;;;-144.05;63.88;56906.19;5021136;28;20026;-81
2024/03/21 09:00:47;;;;;;;9.48;6.90;;;;;;;-144.05;64.42;56925.28;5022267;28;20026;-84
2024/03/21 09:03:14;;;;;;;9.73;7.75;;;;;;;-144.05;63.93;56942.28;5022526;28;20045;-84
2024/03/21 09:05:40;;;;;;;8.95;6.10;;;;;;;-144.05;63.33;56931.66;5021454;28;20356;-81
2024/03/21 09:08:06;;;;;;;9.70;6.93;;;;;;;-144.05;62.51;56948.66;5022082;28;20036;-82
2024/03/21 09:10:33;;;;;;;8.38;6.80;;;;;;;-144.05;62.14;56912.56;5021511;28;20033;-81
2024/03/21 09:12:59;;;;;;;9.23;5.95;;;;;;;-144.05;61.76;56938.03;5021361;28;20041;-82
2024/03/21 09:15:26;;;;;;;9.02;5.15;;;;;;;-144.05;61.73;56912.56;5026960;28;20068;-83
2024/03/21 09:17:52;;;;;;;8.57;6.15;;;;;;;-144.05;61.20;56906.19;5023459;28;20583;-82
2024/03/21 09:20:18;;;;;;;10.18;7.43;;;;;;;-144.05;59.98;56938.03;5030307;28;20187;-82
2024/03/21 09:22:45;;;;;;;8.40;6.50;;;12.90;99.90;;;-144.05;59.07;56923.19;5035432;28;20038;-81
2024/03/21 09:25:12;;;;;;;7.60;6.32;;;;;;;-144.05;59.01;56904.06;5029918;28;20069;-80
2024/03/21 09:27:38;;;;;;;11.90;8.10;;;;;;;-144.05;58.43;56921.06;5026465;28;20038;-83
2024/03/21 09:30:05;;;;;;;10.40;7.45;;;;;;;-144.05;59.05;56914.69;5018892;28;20038;-82
2024/03/21 09:32:31;;;;;;;11.02;7.57;;;;;;;-144.05;59.66;56946.53;5010093;28;20053;-82
2024/03/21 09:34:57;;;;;;;9.80;7.45;;;;;;;-144.05;60.74;56942.28;5020592;28;20038;-83
2024/03/21 09:37:24;;;;;;;10.98;7.43;;;;;;;-144.05;59.86;56950.78;5029536;28;20056;-82
2024/03/21 09:39:50;;;;;;;10.80;7.50;;;;;;;-144.05;58.51;56927.41;5024922;28;20038;-83
2024/03/21 09:42:20;;;;;;;10.90;7.80;;;12.40;99.90;;;-144.05;57.41;56950.78;5020164;28;20033;-82
2024/03/21 09:44:49;;;;;;;10.20;7.60;;;12.30;99.90;;;-144.05;56.77;56897.69;5025277;28;20037;-83
2024/03/21 09:47:20;;;;;;;10.38;6.88;;;12.20;99.90;;;-144.05;57.76;56916.81;5015409;28;20102;-84
2024/03/21 09:49:47;;;;;;;12.27;7.43;;;;;;;-144.05;57.78;56948.66;5016709;28;20041;-82
2024/03/21 09:52:14;;;;;;;13.65;7.68;;;;;;;-144.05;58.00;56959.28;5032426;28;20486;-84
2024/03/21 09:54:40;;;;;;;10.27;7.38;;;;;;;-144.05;58.78;56895.56;5015418;28;20057;-83
2024/03/21 09:57:13;;;;;;;9.13;6.82;;;12.40;99.90;;;-144.05;59.07;56942.28;5017026;28;20021;-84
2024/03/21 09:59:41;;;;;;;11.93;8.30;;;12.10;99.90;;;-144.05;60.24;56918.94;5033415;28;20030;-82
2024/03/21 10:02:12;;;;;;;12.98;7.95;;;10.80;99.90;;;-144.05;60.91;56944.41;5019602;28;20115;-81
2024/03/21 10:04:46;;;;;;;12.85;7.50;;;11.30;99.90;;;-144.05;61.67;56942.28;5019533;28;20025;-83
2024/03/21 10:07:21;;;;;;;9.73;7.60;;;11.50;99.90;;;-144.05;60.96;56944.41;5018536;28;20022;-85
2024/03/21 10:09:58;;;;;;;10.02;7.68;;;12.10;99.90;;;-144.05;59.50;56957.16;5030824;28;20040;-82
2024/03/21 10:12:26;;;;;;;11.90;7.63;;;10.60;99.90;;;-144.05;59.74;56908.31;5028848;28;20033;-84
2024/03/21 10:14:56;;;;;;;11.68;7.55;;;;;;;-144.05;59.62;56957.16;5034478;28;20463;-85
2024/03/21 10:17:26;;;;;;;10.15;6.68;;;12.30;99.90;;;-144.05;57.52;56912.56;5016676;28;20513;-83
2024/03/21 10:19:53;;;;;;;10.45;7.63;;;12.70;99.90;;;-144.05;56.66;56931.66;5018185;28;20394;-82
2024/03/21 10:22:23;;;;;;;12.48;7.85;;;11.70;99.90;;;-144.05;57.26;56910.44;5018847;28;20144;-82
2024/03/21 10:24:55;;;;;;;9.63;7.10;;;11.50;99.90;;;-144.05;57.34;56955.03;5016318;28;20034;-84
2024/03/21 10:27:23;;;;;;;13.43;7.60;;;;;;;-144.05;59.16;56916.81;5018634;28;20036;-85
2024/03/21 10:29:50;;;;;;;14.00;7.80;;;11.30;99.90;;;-144.05;58.68;56940.16;5018797;28;20065;-81
2024/03/21 10:32:20;;;;;;;11.35;8.05;;;10.40;99.90;;;-144.05;60.78;56925.28;5014557;28;20042;-79
2024/03/21 10:34:52;;;;;;;13.15;8.23;;;12.10;99.90;;;-144.05;61.02;56933.78;5018878;28;20060;-81
2024/03/21 10:37:21;;;;;;;13.63;8.50;;;12.40;99.90;;;-144.05;60.22;56929.53;5011825;28;20022;-83
2024/03/21 10:39:50;;;;;;;14.45;8.60;;;11.80;99.90;;;-144.05;59.31;56916.81;5031060;28;20077;-83
2024/03/21 10:42:31;;;;;;;9.48;7.40;;;11.70;99.90;;;-144.05;58.33;56965.66;5023282;28;20031;-83
2024/03/21 10:45:04;;;;;;;12.27;7.50;;;11.50;99.90;;;-144.05;58.46;56927.41;5017798;28;20018;-83
2024/03/21 10:47:32;;;;;;;10.65;7.20;;;;;;;-144.05;58.58;56914.69;5035261;28;20022;-82
2024/03/21 10:49:59;;;;;;;11.18;7.50;;;12.40;99.90;;;-144.05;61.05;56933.78;5033150;28;20030;-82